sensor_id;sensor_type;location;lat;lon;timestamp;P1;durP1;ratioP1;P2;durP2;ratioP2
18818;SDS011;9537;45.594;9.294;2022-08-11T00:00:34;4.32;;;1.60;;
18818;SDS011;9537;45.594;9.294;2022-08-11T00:01:37;7.10;;;2.20;;
18818;SDS011;9537;45.594;9.294;2022-08-11T00:02:45;2.40;;;1.80;;
18818;SDS011;9537;45.594;9.294;2022-08-11T00:03:52;2.15;;;1.60;;
18818;SDS011;9537;45.594;9.294;2022-08-11T00:04:55;3.38;;;1.67;;
18818;SDS011;9537;45.594;9.294;2022-08-11T00:06:01;2.25;;;2.00;;
18818;SDS011;9537;45.594;9.294;2022-08-11T00:07:04;3.08;;;1.90;;
18818;SDS011;9537;45.594;9.294;2022-08-11T00:08:08;1.88;;;1.45;;
18818;SDS011;9537;45.594;9.294;2022-08-11T00:09:10;1.92;;;1.40;;
18818;SDS011;9537;45.594;9.294;2022-08-11T00:10:16;2.33;;;1.83;;
18818;SDS011;9537;45.594;9.294;2022-08-11T00:11:19;2.35;;;1.60;;
18818;SDS011;9537;45.594;9.294;2022-08-11T00:12:23;1.23;;;1.10;;
18818;SDS011;9537;45.594;9.294;2022-08-11T00:13:32;2.22;;;1.70;;
18818;SDS011;9537;45.594;9.294;2022-08-11T00:14:35;3.00;;;1.52;;
18818;SDS011;9537;45.594;9.294;2022-08-11T00:15:37;1.42;;;1.33;;
18818;SDS011;9537;45.594;9.294;2022-08-11T00:16:41;3.28;;;1.77;;
18818;SDS011;9537;45.594;9.294;2022-08-11T00:17:44;5.22;;;1.50;;
18818;SDS011;9537;45.594;9.294;2022-08-11T00:18:49;1.95;;;1.33;;
18818;SDS011;9537;45.594;9.294;2022-08-11T00:19:53;2.30;;;1.38;;
18818;SDS011;9537;45.594;9.294;2022-08-11T00:21:03;3.40;;;1.90;;
18818;SDS011;9537;45.594;9.294;2022-08-11T00:22:05;4.43;;;1.58;;
18818;SDS011;9537;45.594;9.294;2022-08-11T00:23:09;3.22;;;1.40;;
18818;SDS011;9537;45.594;9.294;2022-08-11T00:24:12;3.88;;;1.60;;
18818;SDS011;9537;45.594;9.294;2022-08-11T00:25:15;2.10;;;1.63;;
18818;SDS011;9537;45.594;9.294;2022-08-11T00:26:18;2.40;;;1.70;;
18818;SDS011;9537;45.594;9.294;2022-08-11T00:27:30;2.17;;;1.40;;
18818;SDS011;9537;45.594;9.294;2022-08-11T00:28:34;2.10;;;1.40;;
18818;SDS011;9537;45.594;9.294;2022-08-11T00:29:37;2.05;;;1.40;;
18818;SDS011;9537;45.594;9.294;2022-08-11T00:30:38;2.65;;;1.45;;
18818;SDS011;9537;45.594;9.294;2022-08-11T00:31:42;2.28;;;1.42;;
18818;SDS011;9537;45.594;9.294;2022-08-11T00:32:51;3.15;;;1.50;;
18818;SDS011;9537;45.594;9.294;2022-08-11T00:33:58;1.52;;;1.40;;
18818;SDS011;9537;45.594;9.294;2022-08-11T00:35:01;1.60;;;1.33;;
18818;SDS011;9537;45.594;9.294;2022-08-11T00:36:05;1.27;;;1.17;;
18818;SDS011;9537;45.594;9.294;2022-08-11T00:37:09;2.85;;;1.30;;
18818;SDS011;9537;45.594;9.294;2022-08-11T00:38:12;2.03;;;1.40;;
18818;SDS011;9537;45.594;9.294;2022-08-11T00:39:15;3.05;;;1.50;;
18818;SDS011;9537;45.594;9.294;2022-08-11T00:40:22;2.65;;;1.48;;
18818;SDS011;9537;45.594;9.294;2022-08-11T00:41:30;2.08;;;1.70;;
18818;SDS011;9537;45.594;9.294;2022-08-11T00:42:39;4.25;;;1.38;;
18818;SDS011;9537;45.594;9.294;2022-08-11T00:43:58;2.03;;;1.40;;
18818;SDS011;9537;45.594;9.294;2022-08-11T00:45:21;4.32;;;1.92;;
18818;SDS011;9537;45.594;9.294;2022-08-11T00:46:28;2.00;;;1.30;;
18818;SDS011;9537;45.594;9.294;2022-08-11T00:47:43;1.95;;;1.30;;
18818;SDS011;9537;45.594;9.294;2022-08-11T00:49:07;1.27;;;1.17;;
18818;SDS011;9537;45.594;9.294;2022-08-11T00:50:16;1.90;;;1.38;;
18818;SDS011;9537;45.594;9.294;2022-08-11T00:51:24;1.42;;;1.30;;
18818;SDS011;9537;45.594;9.294;2022-08-11T00:52:58;3.28;;;1.65;;
18818;SDS011;9537;45.594;9.294;2022-08-11T00:54:19;1.58;;;1.15;;
18818;SDS011;9537;45.594;9.294;2022-08-11T00:56:04;2.55;;;1.30;;
18818;SDS011;9537;45.594;9.294;2022-08-11T00:57:21;2.88;;;1.55;;
18818;SDS011;9537;45.594;9.294;2022-08-11T01:00:15;2.78;;;1.20;;
18818;SDS011;9537;45.594;9.294;2022-08-11T01:01:25;2.85;;;1.30;;
18818;SDS011;9537;45.594;9.294;2022-08-11T01:02:38;3.83;;;1.58;;
18818;SDS011;9537;45.594;9.294;2022-08-11T01:03:53;1.65;;;1.52;;
18818;SDS011;9537;45.594;9.294;2022-08-11T01:07:13;2.78;;;1.50;;
18818;SDS011;9537;45.594;9.294;2022-08-11T01:08:39;3.38;;;1.60;;
18818;SDS011;9537;45.594;9.294;2022-08-11T01:10:06;2.30;;;1.40;;
18818;SDS011;9537;45.594;9.294;2022-08-11T01:11:40;2.05;;;1.75;;
18818;SDS011;9537;45.594;9.294;2022-08-11T01:13:00;3.65;;;1.70;;
18818;SDS011;9537;45.594;9.294;2022-08-11T01:14:18;1.90;;;1.60;;
18818;SDS011;9537;45.594;9.294;2022-08-11T01:16:04;1.88;;;1.55;;
18818;SDS011;9537;45.594;9.294;2022-08-11T01:17:34;4.30;;;1.48;;
18818;SDS011;9537;45.594;9.294;2022-08-11T01:22:15;1.83;;;1.50;;
18818;SDS011;9537;45.594;9.294;2022-08-11T01:27:08;2.10;;;1.45;;
18818;SDS011;9537;45.594;9.294;2022-08-11T01:28:26;2.97;;;1.55;;
18818;SDS011;9537;45.594;9.294;2022-08-11T01:30:09;3.70;;;1.58;;
18818;SDS011;9537;45.594;9.294;2022-08-11T01:31:44;1.73;;;1.63;;
18818;SDS011;9537;45.594;9.294;2022-08-11T01:33:30;2.13;;;1.60;;
18818;SDS011;9537;45.594;9.294;2022-08-11T01:35:09;3.13;;;1.77;;
18818;SDS011;9537;45.594;9.294;2022-08-11T01:40:09;2.95;;;1.85;;
18818;SDS011;9537;45.594;9.294;2022-08-11T01:41:30;3.42;;;1.88;;
18818;SDS011;9537;45.594;9.294;2022-08-11T01:43:18;2.30;;;1.60;;
18818;SDS011;9537;45.594;9.294;2022-08-11T01:45:05;2.50;;;2.08;;
18818;SDS011;9537;45.594;9.294;2022-08-11T01:46:19;2.25;;;1.95;;
18818;SDS011;9537;45.594;9.294;2022-08-11T01:47:30;1.80;;;1.70;;
18818;SDS011;9537;45.594;9.294;2022-08-11T01:48:59;2.50;;;1.58;;
18818;SDS011;9537;45.594;9.294;2022-08-11T01:50:14;2.65;;;1.70;;
18818;SDS011;9537;45.594;9.294;2022-08-11T01:51:23;1.92;;;1.73;;
18818;SDS011;9537;45.594;9.294;2022-08-11T01:52:38;3.05;;;1.90;;
18818;SDS011;9537;45.594;9.294;2022-08-11T01:53:53;1.88;;;1.67;;
18818;SDS011;9537;45.594;9.294;2022-08-11T01:55:05;3.50;;;1.80;;
18818;SDS011;9537;45.594;9.294;2022-08-11T01:56:15;2.30;;;2.10;;
18818;SDS011;9537;45.594;9.294;2022-08-11T01:57:30;3.20;;;1.90;;
18818;SDS011;9537;45.594;9.294;2022-08-11T01:58:38;2.05;;;1.80;;
18818;SDS011;9537;45.594;9.294;2022-08-11T01:59:46;2.33;;;1.80;;
18818;SDS011;9537;45.594;9.294;2022-08-11T02:00:51;2.17;;;1.60;;
18818;SDS011;9537;45.594;9.294;2022-08-11T02:02:15;1.75;;;1.65;;
18818;SDS011;9537;45.594;9.294;2022-08-11T02:03:52;2.22;;;2.03;;
18818;SDS011;9537;45.594;9.294;2022-08-11T02:05:02;1.98;;;1.77;;
18818;SDS011;9537;45.594;9.294;2022-08-11T02:06:15;1.80;;;1.70;;
18818;SDS011;9537;45.594;9.294;2022-08-11T02:07:49;3.30;;;1.80;;
18818;SDS011;9537;45.594;9.294;2022-08-11T02:08:58;4.88;;;1.80;;
18818;SDS011;9537;45.594;9.294;2022-08-11T02:10:14;2.63;;;2.00;;
18818;SDS011;9537;45.594;9.294;2022-08-11T02:11:41;3.40;;;2.03;;
18818;SDS011;9537;45.594;9.294;2022-08-11T02:12:49;3.17;;;1.77;;
18818;SDS011;9537;45.594;9.294;2022-08-11T02:13:55;2.97;;;1.70;;
18818;SDS011;9537;45.594;9.294;2022-08-11T02:15:02;3.13;;;1.90;;
18818;SDS011;9537;45.594;9.294;2022-08-11T02:16:15;3.60;;;1.98;;
18818;SDS011;9537;45.594;9.294;2022-08-11T02:17:22;1.88;;;1.65;;
18818;SDS011;9537;45.594;9.294;2022-08-11T02:18:41;5.25;;;2.38;;
18818;SDS011;9537;45.594;9.294;2022-08-11T02:20:09;3.90;;;1.98;;
18818;SDS011;9537;45.594;9.294;2022-08-11T02:21:41;2.40;;;2.00;;
18818;SDS011;9537;45.594;9.294;2022-08-11T02:23:11;2.83;;;2.00;;
18818;SDS011;9537;45.594;9.294;2022-08-11T02:24:43;3.25;;;2.00;;
18818;SDS011;9537;45.594;9.294;2022-08-11T02:25:52;2.13;;;1.92;;
18818;SDS011;9537;45.594;9.294;2022-08-11T02:26:59;3.45;;;1.70;;
18818;SDS011;9537;45.594;9.294;2022-08-11T02:28:06;2.65;;;1.80;;
18818;SDS011;9537;45.594;9.294;2022-08-11T02:29:15;3.20;;;1.80;;
18818;SDS011;9537;45.594;9.294;2022-08-11T02:30:22;3.80;;;1.90;;
18818;SDS011;9537;45.594;9.294;2022-08-11T02:31:39;3.15;;;1.75;;
18818;SDS011;9537;45.594;9.294;2022-08-11T02:33:07;2.35;;;2.08;;
18818;SDS011;9537;45.594;9.294;2022-08-11T02:34:27;2.30;;;1.70;;
18818;SDS011;9537;45.594;9.294;2022-08-11T02:35:48;1.90;;;1.60;;
18818;SDS011;9537;45.594;9.294;2022-08-11T02:37:00;1.77;;;1.67;;
18818;SDS011;9537;45.594;9.294;2022-08-11T02:38:16;2.50;;;2.30;;
18818;SDS011;9537;45.594;9.294;2022-08-11T02:39:24;1.88;;;1.77;;
18818;SDS011;9537;45.594;9.294;2022-08-11T02:40:33;1.90;;;1.70;;
18818;SDS011;9537;45.594;9.294;2022-08-11T02:41:43;2.40;;;1.70;;
18818;SDS011;9537;45.594;9.294;2022-08-11T02:43:14;3.25;;;1.80;;
18818;SDS011;9537;45.594;9.294;2022-08-11T02:44:27;2.10;;;1.90;;
18818;SDS011;9537;45.594;9.294;2022-08-11T02:45:50;2.40;;;1.80;;
18818;SDS011;9537;45.594;9.294;2022-08-11T02:47:02;2.13;;;1.67;;
18818;SDS011;9537;45.594;9.294;2022-08-11T02:48:22;2.65;;;1.80;;
18818;SDS011;9537;45.594;9.294;2022-08-11T02:49:52;1.98;;;1.77;;
18818;SDS011;9537;45.594;9.294;2022-08-11T02:51:03;2.38;;;1.52;;
18818;SDS011;9537;45.594;9.294;2022-08-11T02:52:17;2.25;;;1.90;;
18818;SDS011;9537;45.594;9.294;2022-08-11T02:53:29;2.30;;;1.67;;
18818;SDS011;9537;45.594;9.294;2022-08-11T02:54:38;4.57;;;1.58;;
18818;SDS011;9537;45.594;9.294;2022-08-11T02:55:46;2.70;;;1.90;;
18818;SDS011;9537;45.594;9.294;2022-08-11T02:56:56;3.30;;;1.70;;
18818;SDS011;9537;45.594;9.294;2022-08-11T02:58:08;1.80;;;1.42;;
18818;SDS011;9537;45.594;9.294;2022-08-11T02:59:16;2.00;;;1.70;;
18818;SDS011;9537;45.594;9.294;2022-08-11T03:00:45;3.25;;;1.75;;
18818;SDS011;9537;45.594;9.294;2022-08-11T03:01:53;2.08;;;1.63;;
18818;SDS011;9537;45.594;9.294;2022-08-11T03:03:06;3.00;;;1.70;;
18818;SDS011;9537;45.594;9.294;2022-08-11T03:04:17;2.15;;;1.65;;
18818;SDS011;9537;45.594;9.294;2022-08-11T03:05:26;4.53;;;1.67;;
18818;SDS011;9537;45.594;9.294;2022-08-11T03:06:40;2.40;;;1.88;;
18818;SDS011;9537;45.594;9.294;2022-08-11T03:07:54;2.95;;;2.22;;
18818;SDS011;9537;45.594;9.294;2022-08-11T03:09:08;2.42;;;1.65;;
18818;SDS011;9537;45.594;9.294;2022-08-11T03:10:18;2.22;;;1.70;;
18818;SDS011;9537;45.594;9.294;2022-08-11T03:11:30;2.10;;;1.60;;
18818;SDS011;9537;45.594;9.294;2022-08-11T03:13:10;1.85;;;1.67;;
18818;SDS011;9537;45.594;9.294;2022-08-11T03:14:41;1.80;;;1.70;;
18818;SDS011;9537;45.594;9.294;2022-08-11T03:16:08;2.75;;;1.88;;
18818;SDS011;9537;45.594;9.294;2022-08-11T03:17:35;2.17;;;1.90;;
18818;SDS011;9537;45.594;9.294;2022-08-11T03:18:44;2.72;;;1.95;;
18818;SDS011;9537;45.594;9.294;2022-08-11T03:19:59;3.05;;;1.90;;
18818;SDS011;9537;45.594;9.294;2022-08-11T03:21:11;1.77;;;1.63;;
18818;SDS011;9537;45.594;9.294;2022-08-11T03:22:21;1.45;;;1.35;;
18818;SDS011;9537;45.594;9.294;2022-08-11T03:23:28;3.58;;;2.00;;
18818;SDS011;9537;45.594;9.294;2022-08-11T03:24:37;1.92;;;1.70;;
18818;SDS011;9537;45.594;9.294;2022-08-11T03:25:48;1.85;;;1.65;;
18818;SDS011;9537;45.594;9.294;2022-08-11T03:26:57;1.90;;;1.70;;
18818;SDS011;9537;45.594;9.294;2022-08-11T03:28:10;1.70;;;1.60;;
18818;SDS011;9537;45.594;9.294;2022-08-11T03:29:22;3.10;;;1.90;;
18818;SDS011;9537;45.594;9.294;2022-08-11T03:30:32;3.28;;;1.67;;
18818;SDS011;9537;45.594;9.294;2022-08-11T03:31:43;2.80;;;1.60;;
18818;SDS011;9537;45.594;9.294;2022-08-11T03:32:51;1.60;;;1.50;;
18818;SDS011;9537;45.594;9.294;2022-08-11T03:34:20;2.25;;;1.88;;
18818;SDS011;9537;45.594;9.294;2022-08-11T03:35:25;2.50;;;1.80;;
18818;SDS011;9537;45.594;9.294;2022-08-11T03:36:37;2.10;;;1.90;;
18818;SDS011;9537;45.594;9.294;2022-08-11T03:38:06;1.90;;;1.55;;
18818;SDS011;9537;45.594;9.294;2022-08-11T03:39:15;1.70;;;1.60;;
18818;SDS011;9537;45.594;9.294;2022-08-11T03:40:34;1.83;;;1.42;;
18818;SDS011;9537;45.594;9.294;2022-08-11T03:42:22;1.80;;;1.70;;
18818;SDS011;9537;45.594;9.294;2022-08-11T03:43:36;1.77;;;1.67;;
18818;SDS011;9537;45.594;9.294;2022-08-11T03:44:55;2.15;;;1.80;;
18818;SDS011;9537;45.594;9.294;2022-08-11T03:46:05;1.73;;;1.63;;
18818;SDS011;9537;45.594;9.294;2022-08-11T03:47:25;1.83;;;1.73;;
18818;SDS011;9537;45.594;9.294;2022-08-11T03:48:42;2.60;;;1.88;;
18818;SDS011;9537;45.594;9.294;2022-08-11T03:49:58;1.80;;;1.65;;
18818;SDS011;9537;45.594;9.294;2022-08-11T03:51:06;2.70;;;1.80;;
18818;SDS011;9537;45.594;9.294;2022-08-11T03:52:16;2.08;;;1.58;;
18818;SDS011;9537;45.594;9.294;2022-08-11T03:55:09;13.77;;;2.33;;
18818;SDS011;9537;45.594;9.294;2022-08-11T03:58:05;26.42;;;3.40;;
18818;SDS011;9537;45.594;9.294;2022-08-11T04:03:16;10.85;;;2.80;;
18818;SDS011;9537;45.594;9.294;2022-08-11T04:05:15;9.13;;;2.67;;
18818;SDS011;9537;45.594;9.294;2022-08-11T04:06:47;8.82;;;2.70;;
18818;SDS011;9537;45.594;9.294;2022-08-11T04:11:32;2.92;;;1.50;;
18818;SDS011;9537;45.594;9.294;2022-08-11T04:13:08;2.15;;;1.88;;
18818;SDS011;9537;45.594;9.294;2022-08-11T04:14:41;3.08;;;1.90;;
18818;SDS011;9537;45.594;9.294;2022-08-11T04:16:28;3.47;;;2.08;;
18818;SDS011;9537;45.594;9.294;2022-08-11T04:17:51;4.28;;;1.88;;
18818;SDS011;9537;45.594;9.294;2022-08-11T04:24:22;2.22;;;1.65;;
18818;SDS011;9537;45.594;9.294;2022-08-11T04:27:11;2.55;;;1.85;;
18818;SDS011;9537;45.594;9.294;2022-08-11T04:30:00;3.60;;;2.08;;
18818;SDS011;9537;45.594;9.294;2022-08-11T04:31:15;2.35;;;1.92;;
18818;SDS011;9537;45.594;9.294;2022-08-11T04:32:44;2.10;;;1.90;;
18818;SDS011;9537;45.594;9.294;2022-08-11T04:34:27;2.42;;;2.10;;
18818;SDS011;9537;45.594;9.294;2022-08-11T04:35:43;2.15;;;1.77;;
18818;SDS011;9537;45.594;9.294;2022-08-11T04:38:57;2.30;;;2.08;;
18818;SDS011;9537;45.594;9.294;2022-08-11T04:45:34;4.13;;;2.00;;
18818;SDS011;9537;45.594;9.294;2022-08-11T04:46:51;4.20;;;2.17;;
18818;SDS011;9537;45.594;9.294;2022-08-11T04:48:05;3.05;;;2.13;;
18818;SDS011;9537;45.594;9.294;2022-08-11T04:53:33;3.75;;;2.10;;
18818;SDS011;9537;45.594;9.294;2022-08-11T04:55:11;2.63;;;2.20;;
18818;SDS011;9537;45.594;9.294;2022-08-11T04:56:54;2.47;;;2.28;;
18818;SDS011;9537;45.594;9.294;2022-08-11T04:58:24;2.45;;;2.08;;
18818;SDS011;9537;45.594;9.294;2022-08-11T05:00:03;4.20;;;2.30;;
18818;SDS011;9537;45.594;9.294;2022-08-11T05:01:27;3.50;;;2.10;;
18818;SDS011;9537;45.594;9.294;2022-08-11T05:04:37;2.72;;;2.20;;
18818;SDS011;9537;45.594;9.294;2022-08-11T05:06:16;3.00;;;2.08;;
18818;SDS011;9537;45.594;9.294;2022-08-11T05:08:08;2.28;;;2.08;;
18818;SDS011;9537;45.594;9.294;2022-08-11T05:09:38;3.10;;;2.13;;
18818;SDS011;9537;45.594;9.294;2022-08-11T05:10:59;3.50;;;2.28;;
18818;SDS011;9537;45.594;9.294;2022-08-11T05:12:19;2.92;;;2.08;;
18818;SDS011;9537;45.594;9.294;2022-08-11T05:13:36;3.03;;;1.88;;
18818;SDS011;9537;45.594;9.294;2022-08-11T05:15:03;2.67;;;2.10;;
18818;SDS011;9537;45.594;9.294;2022-08-11T05:16:26;3.85;;;2.30;;
18818;SDS011;9537;45.594;9.294;2022-08-11T05:17:52;3.53;;;2.00;;
18818;SDS011;9537;45.594;9.294;2022-08-11T05:19:14;2.75;;;1.80;;
18818;SDS011;9537;45.594;9.294;2022-08-11T05:20:39;3.00;;;2.05;;
18818;SDS011;9537;45.594;9.294;2022-08-11T05:22:05;2.95;;;1.83;;
18818;SDS011;9537;45.594;9.294;2022-08-11T05:23:28;3.05;;;2.08;;
18818;SDS011;9537;45.594;9.294;2022-08-11T05:24:51;2.97;;;2.00;;
18818;SDS011;9537;45.594;9.294;2022-08-11T05:26:17;2.97;;;2.03;;
18818;SDS011;9537;45.594;9.294;2022-08-11T05:27:48;3.03;;;2.17;;
18818;SDS011;9537;45.594;9.294;2022-08-11T05:29:37;3.40;;;2.00;;
18818;SDS011;9537;45.594;9.294;2022-08-11T05:31:02;3.42;;;1.92;;
18818;SDS011;9537;45.594;9.294;2022-08-11T05:32:27;3.03;;;2.10;;
18818;SDS011;9537;45.594;9.294;2022-08-11T05:33:55;5.10;;;2.50;;
18818;SDS011;9537;45.594;9.294;2022-08-11T05:35:23;3.22;;;2.10;;
18818;SDS011;9537;45.594;9.294;2022-08-11T05:36:30;2.85;;;2.28;;
18818;SDS011;9537;45.594;9.294;2022-08-11T05:37:40;2.85;;;2.20;;
18818;SDS011;9537;45.594;9.294;2022-08-11T05:39:02;2.72;;;2.00;;
18818;SDS011;9537;45.594;9.294;2022-08-11T05:40:26;2.85;;;2.10;;
18818;SDS011;9537;45.594;9.294;2022-08-11T05:41:46;2.20;;;1.98;;
18818;SDS011;9537;45.594;9.294;2022-08-11T05:43:07;3.80;;;1.92;;
18818;SDS011;9537;45.594;9.294;2022-08-11T05:44:31;2.85;;;2.20;;
18818;SDS011;9537;45.594;9.294;2022-08-11T05:45:57;3.35;;;1.90;;
18818;SDS011;9537;45.594;9.294;2022-08-11T05:47:21;4.78;;;2.35;;
18818;SDS011;9537;45.594;9.294;2022-08-11T05:48:42;2.28;;;1.88;;
18818;SDS011;9537;45.594;9.294;2022-08-11T05:50:02;3.22;;;2.38;;
18818;SDS011;9537;45.594;9.294;2022-08-11T05:51:32;3.47;;;2.35;;
18818;SDS011;9537;45.594;9.294;2022-08-11T05:52:52;3.97;;;2.05;;
18818;SDS011;9537;45.594;9.294;2022-08-11T05:54:13;2.15;;;1.83;;
18818;SDS011;9537;45.594;9.294;2022-08-11T05:55:37;2.50;;;1.88;;
18818;SDS011;9537;45.594;9.294;2022-08-11T05:56:58;3.10;;;2.30;;
18818;SDS011;9537;45.594;9.294;2022-08-11T05:58:03;5.90;;;2.00;;
18818;SDS011;9537;45.594;9.294;2022-08-11T05:59:10;3.75;;;2.33;;
18818;SDS011;9537;45.594;9.294;2022-08-11T06:00:13;2.25;;;2.05;;
18818;SDS011;9537;45.594;9.294;2022-08-11T06:01:21;3.90;;;2.22;;
18818;SDS011;9537;45.594;9.294;2022-08-11T06:02:25;2.55;;;2.17;;
18818;SDS011;9537;45.594;9.294;2022-08-11T06:03:28;2.50;;;2.20;;
18818;SDS011;9537;45.594;9.294;2022-08-11T06:04:53;2.30;;;2.10;;
18818;SDS011;9537;45.594;9.294;2022-08-11T06:05:56;2.78;;;2.08;;
18818;SDS011;9537;45.594;9.294;2022-08-11T06:07:00;2.17;;;1.98;;
18818;SDS011;9537;45.594;9.294;2022-08-11T06:08:05;3.13;;;2.10;;
18818;SDS011;9537;45.594;9.294;2022-08-11T06:09:07;2.40;;;2.20;;
18818;SDS011;9537;45.594;9.294;2022-08-11T06:10:09;4.03;;;2.17;;
18818;SDS011;9537;45.594;9.294;2022-08-11T06:11:12;2.47;;;2.28;;
18818;SDS011;9537;45.594;9.294;2022-08-11T06:12:16;3.53;;;2.10;;
18818;SDS011;9537;45.594;9.294;2022-08-11T06:13:20;3.00;;;2.42;;
18818;SDS011;9537;45.594;9.294;2022-08-11T06:14:24;3.03;;;2.47;;
18818;SDS011;9537;45.594;9.294;2022-08-11T06:15:27;2.65;;;2.40;;
18818;SDS011;9537;45.594;9.294;2022-08-11T06:16:32;2.15;;;1.92;;
18818;SDS011;9537;45.594;9.294;2022-08-11T06:17:41;4.80;;;2.50;;
18818;SDS011;9537;45.594;9.294;2022-08-11T06:18:45;2.83;;;2.03;;
18818;SDS011;9537;45.594;9.294;2022-08-11T06:19:47;4.15;;;2.38;;
18818;SDS011;9537;45.594;9.294;2022-08-11T06:20:53;2.80;;;2.13;;
18818;SDS011;9537;45.594;9.294;2022-08-11T06:21:57;6.60;;;2.38;;
18818;SDS011;9537;45.594;9.294;2022-08-11T06:23:02;7.15;;;2.30;;
18818;SDS011;9537;45.594;9.294;2022-08-11T06:24:09;5.88;;;2.20;;
18818;SDS011;9537;45.594;9.294;2022-08-11T06:25:12;2.33;;;2.10;;
18818;SDS011;9537;45.594;9.294;2022-08-11T06:26:15;4.57;;;2.55;;
18818;SDS011;9537;45.594;9.294;2022-08-11T06:27:17;3.22;;;2.08;;
18818;SDS011;9537;45.594;9.294;2022-08-11T06:28:26;3.47;;;1.90;;
18818;SDS011;9537;45.594;9.294;2022-08-11T06:29:30;3.13;;;2.00;;
18818;SDS011;9537;45.594;9.294;2022-08-11T06:30:35;4.22;;;2.03;;
18818;SDS011;9537;45.594;9.294;2022-08-11T06:31:40;2.67;;;1.85;;
18818;SDS011;9537;45.594;9.294;2022-08-11T06:32:43;3.72;;;1.98;;
18818;SDS011;9537;45.594;9.294;2022-08-11T06:33:52;4.47;;;1.85;;
18818;SDS011;9537;45.594;9.294;2022-08-11T06:35:02;2.53;;;1.95;;
18818;SDS011;9537;45.594;9.294;2022-08-11T06:36:10;2.15;;;1.90;;
18818;SDS011;9537;45.594;9.294;2022-08-11T06:37:19;3.67;;;1.83;;
18818;SDS011;9537;45.594;9.294;2022-08-11T06:38:28;4.47;;;2.15;;
18818;SDS011;9537;45.594;9.294;2022-08-11T06:39:44;2.15;;;2.00;;
18818;SDS011;9537;45.594;9.294;2022-08-11T06:40:52;2.28;;;2.00;;
18818;SDS011;9537;45.594;9.294;2022-08-11T06:42:15;3.25;;;2.10;;
18818;SDS011;9537;45.594;9.294;2022-08-11T06:43:34;5.63;;;2.10;;
18818;SDS011;9537;45.594;9.294;2022-08-11T06:44:50;2.72;;;2.20;;
18818;SDS011;9537;45.594;9.294;2022-08-11T06:46:01;4.50;;;2.30;;
18818;SDS011;9537;45.594;9.294;2022-08-11T06:47:08;4.55;;;2.10;;
18818;SDS011;9537;45.594;9.294;2022-08-11T06:48:14;4.32;;;2.38;;
18818;SDS011;9537;45.594;9.294;2022-08-11T06:49:17;2.38;;;2.10;;
18818;SDS011;9537;45.594;9.294;2022-08-11T06:50:39;6.07;;;2.25;;
18818;SDS011;9537;45.594;9.294;2022-08-11T06:51:59;3.40;;;2.30;;
18818;SDS011;9537;45.594;9.294;2022-08-11T06:53:03;5.53;;;2.55;;
18818;SDS011;9537;45.594;9.294;2022-08-11T06:54:06;2.92;;;2.22;;
18818;SDS011;9537;45.594;9.294;2022-08-11T06:55:20;5.25;;;2.40;;
18818;SDS011;9537;45.594;9.294;2022-08-11T06:56:44;3.67;;;2.22;;
18818;SDS011;9537;45.594;9.294;2022-08-11T06:58:05;2.90;;;2.60;;
18818;SDS011;9537;45.594;9.294;2022-08-11T06:59:31;2.83;;;2.22;;
18818;SDS011;9537;45.594;9.294;2022-08-11T07:00:52;3.88;;;2.03;;
18818;SDS011;9537;45.594;9.294;2022-08-11T07:01:59;2.88;;;2.20;;
18818;SDS011;9537;45.594;9.294;2022-08-11T07:03:09;5.28;;;2.55;;
18818;SDS011;9537;45.594;9.294;2022-08-11T07:04:14;3.17;;;2.22;;
18818;SDS011;9537;45.594;9.294;2022-08-11T07:05:28;3.95;;;2.30;;
18818;SDS011;9537;45.594;9.294;2022-08-11T07:06:47;3.65;;;2.42;;
18818;SDS011;9537;45.594;9.294;2022-08-11T07:12:01;3.63;;;2.28;;
18818;SDS011;9537;45.594;9.294;2022-08-11T07:13:40;2.50;;;2.30;;
18818;SDS011;9537;45.594;9.294;2022-08-11T07:15:01;10.20;;;2.50;;
18818;SDS011;9537;45.594;9.294;2022-08-11T07:16:25;3.85;;;2.00;;
18818;SDS011;9537;45.594;9.294;2022-08-11T07:17:28;3.92;;;2.25;;
18818;SDS011;9537;45.594;9.294;2022-08-11T07:18:36;2.58;;;2.08;;
18818;SDS011;9537;45.594;9.294;2022-08-11T07:19:57;4.50;;;2.10;;
18818;SDS011;9537;45.594;9.294;2022-08-11T07:21:23;3.30;;;2.05;;
18818;SDS011;9537;45.594;9.294;2022-08-11T07:22:48;4.75;;;2.30;;
18818;SDS011;9537;45.594;9.294;2022-08-11T07:24:15;4.55;;;2.17;;
18818;SDS011;9537;45.594;9.294;2022-08-11T07:25:37;3.55;;;2.25;;
18818;SDS011;9537;45.594;9.294;2022-08-11T07:26:59;4.63;;;2.35;;
18818;SDS011;9537;45.594;9.294;2022-08-11T07:28:23;5.13;;;2.20;;
18818;SDS011;9537;45.594;9.294;2022-08-11T07:29:45;4.28;;;2.30;;
18818;SDS011;9537;45.594;9.294;2022-08-11T07:30:50;3.20;;;2.33;;
18818;SDS011;9537;45.594;9.294;2022-08-11T07:31:57;4.78;;;2.40;;
18818;SDS011;9537;45.594;9.294;2022-08-11T07:33:09;6.88;;;2.13;;
18818;SDS011;9537;45.594;9.294;2022-08-11T07:34:17;3.92;;;2.03;;
18818;SDS011;9537;45.594;9.294;2022-08-11T07:35:21;3.03;;;2.03;;
18818;SDS011;9537;45.594;9.294;2022-08-11T07:36:28;5.47;;;2.22;;
18818;SDS011;9537;45.594;9.294;2022-08-11T07:37:30;2.65;;;2.15;;
18818;SDS011;9537;45.594;9.294;2022-08-11T07:38:37;4.50;;;2.13;;
18818;SDS011;9537;45.594;9.294;2022-08-11T07:39:43;2.35;;;2.15;;
18818;SDS011;9537;45.594;9.294;2022-08-11T07:40:47;5.93;;;2.15;;
18818;SDS011;9537;45.594;9.294;2022-08-11T07:41:50;4.78;;;2.40;;
18818;SDS011;9537;45.594;9.294;2022-08-11T07:42:53;7.15;;;2.28;;
18818;SDS011;9537;45.594;9.294;2022-08-11T07:43:57;2.25;;;2.05;;
18818;SDS011;9537;45.594;9.294;2022-08-11T07:45:08;2.67;;;2.10;;
18818;SDS011;9537;45.594;9.294;2022-08-11T07:46:29;2.90;;;1.83;;
18818;SDS011;9537;45.594;9.294;2022-08-11T07:47:48;5.10;;;2.20;;
18818;SDS011;9537;45.594;9.294;2022-08-11T07:49:08;3.22;;;2.55;;
18818;SDS011;9537;45.594;9.294;2022-08-11T07:50:30;3.88;;;2.10;;
18818;SDS011;9537;45.594;9.294;2022-08-11T07:51:50;3.63;;;2.30;;
18818;SDS011;9537;45.594;9.294;2022-08-11T07:53:11;6.63;;;2.55;;
18818;SDS011;9537;45.594;9.294;2022-08-11T07:54:15;4.90;;;2.17;;
18818;SDS011;9537;45.594;9.294;2022-08-11T07:55:17;3.42;;;2.20;;
18818;SDS011;9537;45.594;9.294;2022-08-11T07:56:21;3.97;;;2.17;;
18818;SDS011;9537;45.594;9.294;2022-08-11T07:57:23;5.70;;;2.28;;
18818;SDS011;9537;45.594;9.294;2022-08-11T07:58:44;6.00;;;2.00;;
18818;SDS011;9537;45.594;9.294;2022-08-11T08:00:06;4.45;;;1.80;;
18818;SDS011;9537;45.594;9.294;2022-08-11T08:01:26;5.10;;;2.20;;
18818;SDS011;9537;45.594;9.294;2022-08-11T08:02:48;3.40;;;1.65;;
18818;SDS011;9537;45.594;9.294;2022-08-11T08:04:09;3.65;;;2.20;;
18818;SDS011;9537;45.594;9.294;2022-08-11T08:05:32;5.50;;;1.98;;
18818;SDS011;9537;45.594;9.294;2022-08-11T08:06:52;2.50;;;1.83;;
18818;SDS011;9537;45.594;9.294;2022-08-11T08:08:12;3.40;;;1.77;;
18818;SDS011;9537;45.594;9.294;2022-08-11T08:09:33;3.72;;;1.70;;
18818;SDS011;9537;45.594;9.294;2022-08-11T08:10:53;2.92;;;2.05;;
18818;SDS011;9537;45.594;9.294;2022-08-11T08:12:14;3.40;;;1.70;;
18818;SDS011;9537;45.594;9.294;2022-08-11T08:13:33;1.73;;;1.58;;
18818;SDS011;9537;45.594;9.294;2022-08-11T08:14:55;2.35;;;1.75;;
18818;SDS011;9537;45.594;9.294;2022-08-11T08:16:15;4.00;;;2.05;;
18818;SDS011;9537;45.594;9.294;2022-08-11T08:17:35;3.05;;;1.92;;
18818;SDS011;9537;45.594;9.294;2022-08-11T08:18:50;5.38;;;2.40;;
18818;SDS011;9537;45.594;9.294;2022-08-11T08:19:52;2.33;;;1.88;;
18818;SDS011;9537;45.594;9.294;2022-08-11T08:20:56;2.35;;;1.75;;
18818;SDS011;9537;45.594;9.294;2022-08-11T08:22:11;4.63;;;1.80;;
18818;SDS011;9537;45.594;9.294;2022-08-11T08:23:16;1.92;;;1.70;;
18818;SDS011;9537;45.594;9.294;2022-08-11T08:24:32;3.97;;;2.10;;
18818;SDS011;9537;45.594;9.294;2022-08-11T08:25:34;4.07;;;1.88;;
18818;SDS011;9537;45.594;9.294;2022-08-11T08:26:38;6.50;;;2.03;;
18818;SDS011;9537;45.594;9.294;2022-08-11T08:27:59;3.17;;;1.75;;
18818;SDS011;9537;45.594;9.294;2022-08-11T08:29:04;1.73;;;1.42;;
18818;SDS011;9537;45.594;9.294;2022-08-11T08:30:26;3.05;;;1.70;;
18818;SDS011;9537;45.594;9.294;2022-08-11T08:31:46;2.80;;;1.55;;
18818;SDS011;9537;45.594;9.294;2022-08-11T08:32:49;2.65;;;1.80;;